Armstrong, Pennsylvania
Current Conditions -  °F | °C
As of 2:54 AM on Friday 19 Dec 2014 (Local Time) from KIPT Reporting Station
Overcast Overcast  
Wind Chill: 27°   Ceiling: 2600
Heat Index: 34°   Visibility: 10mi
Dew Point: 26°   Wind: 9mph
Humidity: 73%   Direction: 270°W
Pressure: 30.03"   Gusts: NA
Location:  41.2285°N, 77.014°W
Report Text: KIPT 190754Z AUTO 27008KT 10SM OVC026 01/M03 A3003 RMK AO2 SLP174 T00111033
Loading
Personal Weather Stations






























Interactive Weather Map New forecast layout! Learn more

10-Day Weather Forecast

Advertisements
Track Severe Weather on mobile